Cranberry, North Carolina
Current Conditions -  °F | °C
As of 9:35 AM on Saturday 25 Oct 2014 (Local Time) from KTNB Reporting Station
Clear Clear  
Wind Chill: 44°   Ceiling: Unl
Heat Index: 49°   Visibility: 10mi
Dew Point: 34°   Wind: 14mph
Humidity: 57%   Direction: 280°W
Pressure: 30.09"   Gusts: NA
Location:  36.1731°N, 81.9572°W
Report Text: KTNB 251335Z AUTO 28012KT 10SM CLR 10/01 A3009 RMK AO2 T00950013
Loading
Personal Weather Stations






























Interactive Weather Map New forecast layout! Learn more

10-Day Weather Forecast

Advertisements
Track Severe Weather on mobile